sensor_id;sensor_type;location;lat;lon;timestamp;temperature;humidity
78541;SHT31;67835;51.968;5.646;2023-04-25T00:01:55;9.1;65.1
78541;SHT31;67835;51.968;5.646;2023-04-25T00:04:27;9.1;64.8
78541;SHT31;67835;51.968;5.646;2023-04-25T00:06:59;9.0;65.1
78541;SHT31;67835;51.968;5.646;2023-04-25T00:09:31;9.0;65.1
78541;SHT31;67835;51.968;5.646;2023-04-25T00:12:02;8.9;65.2
78541;SHT31;67835;51.968;5.646;2023-04-25T00:14:32;8.9;65.8
78541;SHT31;67835;51.968;5.646;2023-04-25T00:17:03;8.9;66.0
78541;SHT31;67835;51.968;5.646;2023-04-25T00:19:33;8.9;66.2
78541;SHT31;67835;51.968;5.646;2023-04-25T00:22:02;8.8;66.4
78541;SHT31;67835;51.968;5.646;2023-04-25T00:24:33;8.8;66.4
78541;SHT31;67835;51.968;5.646;2023-04-25T00:27:02;8.8;66.4
78541;SHT31;67835;51.968;5.646;2023-04-25T00:29:33;8.8;66.7
78541;SHT31;67835;51.968;5.646;2023-04-25T00:32:03;8.8;66.7
78541;SHT31;67835;51.968;5.646;2023-04-25T00:34:32;8.8;66.7
78541;SHT31;67835;51.968;5.646;2023-04-25T00:37:02;8.8;66.6
78541;SHT31;67835;51.968;5.646;2023-04-25T00:39:33;8.7;66.3
78541;SHT31;67835;51.968;5.646;2023-04-25T00:42:03;8.7;66.1
78541;SHT31;67835;51.968;5.646;2023-04-25T00:44:37;8.7;66.1
78541;SHT31;67835;51.968;5.646;2023-04-25T00:47:08;8.7;66.1
78541;SHT31;67835;51.968;5.646;2023-04-25T00:49:38;8.7;66.1
78541;SHT31;67835;51.968;5.646;2023-04-25T00:52:07;8.6;65.9
78541;SHT31;67835;51.968;5.646;2023-04-25T00:54:38;8.6;65.8
78541;SHT31;67835;51.968;5.646;2023-04-25T00:57:08;8.6;65.8
78541;SHT31;67835;51.968;5.646;2023-04-25T00:59:38;8.6;65.9
78541;SHT31;67835;51.968;5.646;2023-04-25T01:02:13;8.6;66.0
78541;SHT31;67835;51.968;5.646;2023-04-25T01:04:43;8.5;65.9
78541;SHT31;67835;51.968;5.646;2023-04-25T01:07:12;8.5;66.5
78541;SHT31;67835;51.968;5.646;2023-04-25T01:09:43;8.5;66.6
78541;SHT31;67835;51.968;5.646;2023-04-25T01:12:12;8.5;67.0
78541;SHT31;67835;51.968;5.646;2023-04-25T01:14:42;8.6;66.7
78541;SHT31;67835;51.968;5.646;2023-04-25T01:17:12;8.6;66.6
78541;SHT31;67835;51.968;5.646;2023-04-25T01:19:43;8.6;66.8
78541;SHT31;67835;51.968;5.646;2023-04-25T01:22:16;8.7;66.4
78541;SHT31;67835;51.968;5.646;2023-04-25T01:24:46;8.7;66.2
78541;SHT31;67835;51.968;5.646;2023-04-25T01:27:17;8.8;65.8
78541;SHT31;67835;51.968;5.646;2023-04-25T01:29:50;8.8;65.8
78541;SHT31;67835;51.968;5.646;2023-04-25T01:32:21;8.9;65.4
78541;SHT31;67835;51.968;5.646;2023-04-25T01:34:52;8.9;64.9
78541;SHT31;67835;51.968;5.646;2023-04-25T01:37:22;9.0;64.9
78541;SHT31;67835;51.968;5.646;2023-04-25T01:39:52;9.0;64.4
78541;SHT31;67835;51.968;5.646;2023-04-25T01:42:22;9.1;64.3
78541;SHT31;67835;51.968;5.646;2023-04-25T01:44:52;9.1;63.9
78541;SHT31;67835;51.968;5.646;2023-04-25T01:47:22;9.1;64.0
78541;SHT31;67835;51.968;5.646;2023-04-25T01:49:51;9.1;63.6
78541;SHT31;67835;51.968;5.646;2023-04-25T01:52:21;9.2;63.5
78541;SHT31;67835;51.968;5.646;2023-04-25T01:54:53;9.2;63.2
78541;SHT31;67835;51.968;5.646;2023-04-25T01:57:23;9.2;63.3
78541;SHT31;67835;51.968;5.646;2023-04-25T01:59:58;9.2;62.8
78541;SHT31;67835;51.968;5.646;2023-04-25T02:02:29;9.2;62.6
78541;SHT31;67835;51.968;5.646;2023-04-25T02:04:59;9.2;62.2
78541;SHT31;67835;51.968;5.646;2023-04-25T02:07:31;9.2;62.0
78541;SHT31;67835;51.968;5.646;2023-04-25T02:10:01;9.2;61.7
78541;SHT31;67835;51.968;5.646;2023-04-25T02:12:31;9.1;61.5
78541;SHT31;67835;51.968;5.646;2023-04-25T02:15:01;9.1;61.0
78541;SHT31;67835;51.968;5.646;2023-04-25T02:17:31;9.1;61.0
78541;SHT31;67835;51.968;5.646;2023-04-25T02:20:01;9.0;61.1
78541;SHT31;67835;51.968;5.646;2023-04-25T02:22:31;8.9;61.2
78541;SHT31;67835;51.968;5.646;2023-04-25T02:25:01;8.9;61.2
78541;SHT31;67835;51.968;5.646;2023-04-25T02:27:32;8.8;61.2
78541;SHT31;67835;51.968;5.646;2023-04-25T02:30:02;8.8;61.4
78541;SHT31;67835;51.968;5.646;2023-04-25T02:32:32;8.7;61.7
78541;SHT31;67835;51.968;5.646;2023-04-25T02:35:04;8.7;61.9
78541;SHT31;67835;51.968;5.646;2023-04-25T02:37:35;8.6;62.1
78541;SHT31;67835;51.968;5.646;2023-04-25T02:40:07;8.6;62.0
78541;SHT31;67835;51.968;5.646;2023-04-25T02:42:37;8.5;61.9
78541;SHT31;67835;51.968;5.646;2023-04-25T02:45:07;8.5;61.7
78541;SHT31;67835;51.968;5.646;2023-04-25T02:47:37;8.4;61.5
78541;SHT31;67835;51.968;5.646;2023-04-25T02:50:08;8.4;61.6
78541;SHT31;67835;51.968;5.646;2023-04-25T02:52:38;8.4;61.6
78541;SHT31;67835;51.968;5.646;2023-04-25T02:55:10;8.3;61.7
78541;SHT31;67835;51.968;5.646;2023-04-25T02:57:40;8.3;62.0
78541;SHT31;67835;51.968;5.646;2023-04-25T03:00:11;8.2;62.3
78541;SHT31;67835;51.968;5.646;2023-04-25T03:02:41;8.1;62.5
78541;SHT31;67835;51.968;5.646;2023-04-25T03:05:11;8.1;62.7
78541;SHT31;67835;51.968;5.646;2023-04-25T03:07:40;8.0;62.9
78541;SHT31;67835;51.968;5.646;2023-04-25T03:10:12;8.0;63.1
78541;SHT31;67835;51.968;5.646;2023-04-25T03:12:41;7.9;63.3
78541;SHT31;67835;51.968;5.646;2023-04-25T03:15:11;7.9;63.8
78541;SHT31;67835;51.968;5.646;2023-04-25T03:17:41;7.8;64.0
78541;SHT31;67835;51.968;5.646;2023-04-25T03:20:13;7.8;64.3
78541;SHT31;67835;51.968;5.646;2023-04-25T03:22:43;7.7;64.3
78541;SHT31;67835;51.968;5.646;2023-04-25T03:25:14;7.7;64.5
78541;SHT31;67835;51.968;5.646;2023-04-25T03:27:43;7.7;64.8
78541;SHT31;67835;51.968;5.646;2023-04-25T03:30:13;7.7;65.3
78541;SHT31;67835;51.968;5.646;2023-04-25T03:32:42;7.7;65.8
78541;SHT31;67835;51.968;5.646;2023-04-25T03:35:12;7.7;66.0
78541;SHT31;67835;51.968;5.646;2023-04-25T03:37:41;7.7;66.5
78541;SHT31;67835;51.968;5.646;2023-04-25T03:40:12;7.7;66.7
78541;SHT31;67835;51.968;5.646;2023-04-25T03:42:42;7.7;67.1
78541;SHT31;67835;51.968;5.646;2023-04-25T03:45:14;7.8;67.1
78541;SHT31;67835;51.968;5.646;2023-04-25T03:47:44;7.8;67.0
78541;SHT31;67835;51.968;5.646;2023-04-25T03:50:13;7.8;66.8
78541;SHT31;67835;51.968;5.646;2023-04-25T03:52:43;7.9;66.6
78541;SHT31;67835;51.968;5.646;2023-04-25T03:55:14;7.9;66.2
78541;SHT31;67835;51.968;5.646;2023-04-25T03:57:46;7.9;66.0
78541;SHT31;67835;51.968;5.646;2023-04-25T04:00:16;7.9;65.7
78541;SHT31;67835;51.968;5.646;2023-04-25T04:02:46;7.9;65.4
78541;SHT31;67835;51.968;5.646;2023-04-25T04:05:15;7.8;65.4
78541;SHT31;67835;51.968;5.646;2023-04-25T04:07:44;7.8;65.5
78541;SHT31;67835;51.968;5.646;2023-04-25T04:10:14;7.8;65.6
78541;SHT31;67835;51.968;5.646;2023-04-25T04:12:44;7.8;65.8
78541;SHT31;67835;51.968;5.646;2023-04-25T04:15:14;7.8;65.9
78541;SHT31;67835;51.968;5.646;2023-04-25T04:17:45;7.8;66.2
78541;SHT31;67835;51.968;5.646;2023-04-25T04:20:15;7.8;66.3
78541;SHT31;67835;51.968;5.646;2023-04-25T04:22:44;7.8;66.4
78541;SHT31;67835;51.968;5.646;2023-04-25T04:25:15;7.8;66.2
78541;SHT31;67835;51.968;5.646;2023-04-25T04:27:45;7.8;66.2
78541;SHT31;67835;51.968;5.646;2023-04-25T04:30:15;7.9;65.7
78541;SHT31;67835;51.968;5.646;2023-04-25T04:32:45;7.9;65.6
78541;SHT31;67835;51.968;5.646;2023-04-25T04:35:16;7.9;65.6
78541;SHT31;67835;51.968;5.646;2023-04-25T04:37:46;8.0;65.7
78541;SHT31;67835;51.968;5.646;2023-04-25T04:40:16;8.0;65.5
78541;SHT31;67835;51.968;5.646;2023-04-25T04:42:46;8.1;65.5
78541;SHT31;67835;51.968;5.646;2023-04-25T04:45:17;8.1;65.3
78541;SHT31;67835;51.968;5.646;2023-04-25T04:47:48;8.2;65.2
78541;SHT31;67835;51.968;5.646;2023-04-25T04:50:19;8.2;65.2
78541;SHT31;67835;51.968;5.646;2023-04-25T04:52:50;8.3;64.7
78541;SHT31;67835;51.968;5.646;2023-04-25T04:55:19;8.3;64.4
78541;SHT31;67835;51.968;5.646;2023-04-25T04:57:49;8.4;64.1
78541;SHT31;67835;51.968;5.646;2023-04-25T05:00:21;8.4;63.7
78541;SHT31;67835;51.968;5.646;2023-04-25T05:02:50;8.5;63.7
78541;SHT31;67835;51.968;5.646;2023-04-25T05:05:22;8.5;63.7
78541;SHT31;67835;51.968;5.646;2023-04-25T05:07:51;8.6;63.5
78541;SHT31;67835;51.968;5.646;2023-04-25T05:10:21;8.6;63.3
78541;SHT31;67835;51.968;5.646;2023-04-25T05:12:53;8.7;63.1
78541;SHT31;67835;51.968;5.646;2023-04-25T05:15:22;8.7;63.1
78541;SHT31;67835;51.968;5.646;2023-04-25T05:17:52;8.8;63.3
78541;SHT31;67835;51.968;5.646;2023-04-25T05:20:21;8.8;63.0
78541;SHT31;67835;51.968;5.646;2023-04-25T05:22:51;8.9;62.8
78541;SHT31;67835;51.968;5.646;2023-04-25T05:25:21;8.9;62.8
78541;SHT31;67835;51.968;5.646;2023-04-25T05:27:50;9.0;62.5
78541;SHT31;67835;51.968;5.646;2023-04-25T05:30:20;9.0;62.4
78541;SHT31;67835;51.968;5.646;2023-04-25T05:32:50;9.0;62.2
78541;SHT31;67835;51.968;5.646;2023-04-25T05:35:20;9.1;61.7
78541;SHT31;67835;51.968;5.646;2023-04-25T05:37:49;9.1;61.4
78541;SHT31;67835;51.968;5.646;2023-04-25T05:40:18;9.2;60.9
78541;SHT31;67835;51.968;5.646;2023-04-25T05:42:48;9.2;61.2
78541;SHT31;67835;51.968;5.646;2023-04-25T05:45:18;9.3;60.4
78541;SHT31;67835;51.968;5.646;2023-04-25T05:47:47;9.3;60.1
78541;SHT31;67835;51.968;5.646;2023-04-25T05:50:17;9.4;60.3
78541;SHT31;67835;51.968;5.646;2023-04-25T05:52:47;9.4;60.1
78541;SHT31;67835;51.968;5.646;2023-04-25T05:55:16;9.4;59.7
78541;SHT31;67835;51.968;5.646;2023-04-25T05:57:46;9.4;59.6
78541;SHT31;67835;51.968;5.646;2023-04-25T06:00:16;9.5;59.5
78541;SHT31;67835;51.968;5.646;2023-04-25T06:02:46;9.5;59.3
78541;SHT31;67835;51.968;5.646;2023-04-25T06:05:16;9.5;59.5
78541;SHT31;67835;51.968;5.646;2023-04-25T06:07:45;9.5;60.4
78541;SHT31;67835;51.968;5.646;2023-04-25T06:10:14;9.6;59.7
78541;SHT31;67835;51.968;5.646;2023-04-25T06:12:46;9.6;59.8
78541;SHT31;67835;51.968;5.646;2023-04-25T06:15:15;9.7;59.6
78541;SHT31;67835;51.968;5.646;2023-04-25T06:17:45;9.8;59.8
78541;SHT31;67835;51.968;5.646;2023-04-25T06:20:15;9.8;60.1
78541;SHT31;67835;51.968;5.646;2023-04-25T06:22:44;9.9;59.1
78541;SHT31;67835;51.968;5.646;2023-04-25T06:25:14;10.0;58.8
78541;SHT31;67835;51.968;5.646;2023-04-25T06:27:46;10.1;59.0
78541;SHT31;67835;51.968;5.646;2023-04-25T06:30:16;10.2;59.3
78541;SHT31;67835;51.968;5.646;2023-04-25T06:32:49;10.3;58.6
78541;SHT31;67835;51.968;5.646;2023-04-25T06:35:20;10.4;58.5
78541;SHT31;67835;51.968;5.646;2023-04-25T06:37:49;10.6;58.4
78541;SHT31;67835;51.968;5.646;2023-04-25T06:40:19;10.7;58.6
78541;SHT31;67835;51.968;5.646;2023-04-25T06:42:49;10.8;58.1
78541;SHT31;67835;51.968;5.646;2023-04-25T06:45:18;11.0;56.9
78541;SHT31;67835;51.968;5.646;2023-04-25T06:47:47;11.1;55.9
78541;SHT31;67835;51.968;5.646;2023-04-25T06:50:17;11.3;55.4
78541;SHT31;67835;51.968;5.646;2023-04-25T06:52:47;11.4;55.2
78541;SHT31;67835;51.968;5.646;2023-04-25T06:55:16;11.4;55.2
78541;SHT31;67835;51.968;5.646;2023-04-25T06:57:46;11.5;55.0
78541;SHT31;67835;51.968;5.646;2023-04-25T07:00:19;11.6;53.9
78541;SHT31;67835;51.968;5.646;2023-04-25T07:02:49;11.7;53.7
78541;SHT31;67835;51.968;5.646;2023-04-25T07:05:20;11.8;52.9
78541;SHT31;67835;51.968;5.646;2023-04-25T07:07:50;11.9;54.1
78541;SHT31;67835;51.968;5.646;2023-04-25T07:10:20;12.0;52.9
78541;SHT31;67835;51.968;5.646;2023-04-25T07:12:50;12.1;52.3
78541;SHT31;67835;51.968;5.646;2023-04-25T07:15:21;12.2;51.0
78541;SHT31;67835;51.968;5.646;2023-04-25T07:17:51;12.3;50.8
78541;SHT31;67835;51.968;5.646;2023-04-25T07:20:21;12.4;49.8
78541;SHT31;67835;51.968;5.646;2023-04-25T07:22:50;12.5;49.8
78541;SHT31;67835;51.968;5.646;2023-04-25T07:25:20;12.6;52.1
78541;SHT31;67835;51.968;5.646;2023-04-25T07:27:50;12.9;49.2
78541;SHT31;67835;51.968;5.646;2023-04-25T07:30:22;13.3;49.2
78541;SHT31;67835;51.968;5.646;2023-04-25T07:32:51;13.7;48.5
78541;SHT31;67835;51.968;5.646;2023-04-25T07:35:23;14.0;46.5
78541;SHT31;67835;51.968;5.646;2023-04-25T07:37:52;14.2;45.2
78541;SHT31;67835;51.968;5.646;2023-04-25T07:40:22;14.3;45.4
78541;SHT31;67835;51.968;5.646;2023-04-25T07:42:54;14.4;45.3
78541;SHT31;67835;51.968;5.646;2023-04-25T07:45:23;14.4;45.3
78541;SHT31;67835;51.968;5.646;2023-04-25T07:47:53;14.5;46.2
78541;SHT31;67835;51.968;5.646;2023-04-25T07:50:22;14.6;46.1
78541;SHT31;67835;51.968;5.646;2023-04-25T07:52:52;15.0;44.9
78541;SHT31;67835;51.968;5.646;2023-04-25T07:55:21;15.4;44.8
78541;SHT31;67835;51.968;5.646;2023-04-25T07:57:51;15.8;43.2
78541;SHT31;67835;51.968;5.646;2023-04-25T08:00:21;16.1;41.6
78541;SHT31;67835;51.968;5.646;2023-04-25T08:02:50;16.5;41.3
78541;SHT31;67835;51.968;5.646;2023-04-25T08:05:20;17.0;39.4
78541;SHT31;67835;51.968;5.646;2023-04-25T08:07:50;17.5;38.5
78541;SHT31;67835;51.968;5.646;2023-04-25T08:10:20;17.9;39.8
78541;SHT31;67835;51.968;5.646;2023-04-25T08:12:50;18.4;36.2
78541;SHT31;67835;51.968;5.646;2023-04-25T08:15:20;18.9;34.6
78541;SHT31;67835;51.968;5.646;2023-04-25T08:17:49;19.2;34.4
78541;SHT31;67835;51.968;5.646;2023-04-25T08:20:19;19.3;34.0
78541;SHT31;67835;51.968;5.646;2023-04-25T08:22:49;19.4;34.5
78541;SHT31;67835;51.968;5.646;2023-04-25T08:25:18;19.5;34.0
78541;SHT31;67835;51.968;5.646;2023-04-25T08:27:48;19.5;33.4
78541;SHT31;67835;51.968;5.646;2023-04-25T08:30:18;19.5;34.4
78541;SHT31;67835;51.968;5.646;2023-04-25T08:32:48;19.5;34.1
78541;SHT31;67835;51.968;5.646;2023-04-25T08:35:17;19.5;33.0
78541;SHT31;67835;51.968;5.646;2023-04-25T08:37:48;19.5;31.9
78541;SHT31;67835;51.968;5.646;2023-04-25T08:40:19;19.4;32.6
78541;SHT31;67835;51.968;5.646;2023-04-25T08:42:57;19.3;33.7
78541;SHT31;67835;51.968;5.646;2023-04-25T08:45:32;19.3;33.0
78541;SHT31;67835;51.968;5.646;2023-04-25T08:48:05;19.3;31.8
78541;SHT31;67835;51.968;5.646;2023-04-25T08:50:39;19.2;32.8
78541;SHT31;67835;51.968;5.646;2023-04-25T08:53:14;19.3;31.1
78541;SHT31;67835;51.968;5.646;2023-04-25T08:55:48;19.5;31.8
78541;SHT31;67835;51.968;5.646;2023-04-25T08:58:20;19.9;29.9
78541;SHT31;67835;51.968;5.646;2023-04-25T09:00:51;20.3;30.2
78541;SHT31;67835;51.968;5.646;2023-04-25T09:03:22;20.6;29.1
78541;SHT31;67835;51.968;5.646;2023-04-25T09:05:56;20.6;30.3
78541;SHT31;67835;51.968;5.646;2023-04-25T09:08:27;20.5;31.3
78541;SHT31;67835;51.968;5.646;2023-04-25T09:10:57;20.2;32.3
78541;SHT31;67835;51.968;5.646;2023-04-25T09:13:28;19.7;32.6
78541;SHT31;67835;51.968;5.646;2023-04-25T09:15:58;19.2;33.1
78541;SHT31;67835;51.968;5.646;2023-04-25T09:18:29;18.8;32.9
78541;SHT31;67835;51.968;5.646;2023-04-25T09:21:07;18.6;33.2
78541;SHT31;67835;51.968;5.646;2023-04-25T09:23:43;18.4;33.8
78541;SHT31;67835;51.968;5.646;2023-04-25T09:26:17;18.3;33.4
78541;SHT31;67835;51.968;5.646;2023-04-25T09:28:47;18.2;34.3
78541;SHT31;67835;51.968;5.646;2023-04-25T09:31:23;18.1;33.5
78541;SHT31;67835;51.968;5.646;2023-04-25T09:33:58;18.1;33.7
78541;SHT31;67835;51.968;5.646;2023-04-25T09:36:30;18.1;33.8
78541;SHT31;67835;51.968;5.646;2023-04-25T09:39:00;18.1;31.6
78541;SHT31;67835;51.968;5.646;2023-04-25T09:41:31;18.2;31.4
78541;SHT31;67835;51.968;5.646;2023-04-25T09:44:01;18.3;32.9
78541;SHT31;67835;51.968;5.646;2023-04-25T09:46:35;18.6;32.7
78541;SHT31;67835;51.968;5.646;2023-04-25T09:49:08;19.2;30.6
78541;SHT31;67835;51.968;5.646;2023-04-25T09:51:37;20.2;28.2
78541;SHT31;67835;51.968;5.646;2023-04-25T09:54:07;20.9;27.4
78541;SHT31;67835;51.968;5.646;2023-04-25T09:56:37;21.6;28.1
78541;SHT31;67835;51.968;5.646;2023-04-25T09:59:09;22.3;27.9
78541;SHT31;67835;51.968;5.646;2023-04-25T10:01:43;22.8;25.5
78541;SHT31;67835;51.968;5.646;2023-04-25T10:04:18;22.8;25.9
78541;SHT31;67835;51.968;5.646;2023-04-25T10:06:51;22.8;25.6
78541;SHT31;67835;51.968;5.646;2023-04-25T10:09:25;22.6;25.9
78541;SHT31;67835;51.968;5.646;2023-04-25T10:11:57;22.2;26.5
78541;SHT31;67835;51.968;5.646;2023-04-25T10:14:28;21.6;27.1
78541;SHT31;67835;51.968;5.646;2023-04-25T10:17:00;20.9;27.3
78541;SHT31;67835;51.968;5.646;2023-04-25T10:19:30;20.2;28.0
78541;SHT31;67835;51.968;5.646;2023-04-25T10:22:07;19.6;28.7
78541;SHT31;67835;51.968;5.646;2023-04-25T10:24:38;19.1;29.9
78541;SHT31;67835;51.968;5.646;2023-04-25T10:27:09;18.8;31.9
78541;SHT31;67835;51.968;5.646;2023-04-25T10:29:41;18.5;33.4
78541;SHT31;67835;51.968;5.646;2023-04-25T10:32:12;18.3;33.4
78541;SHT31;67835;51.968;5.646;2023-04-25T10:34:44;18.1;34.3
78541;SHT31;67835;51.968;5.646;2023-04-25T10:37:14;18.0;33.2
78541;SHT31;67835;51.968;5.646;2023-04-25T10:39:44;17.9;34.6
78541;SHT31;67835;51.968;5.646;2023-04-25T10:42:14;17.9;33.8
78541;SHT31;67835;51.968;5.646;2023-04-25T10:45:03;17.8;32.4
78541;SHT31;67835;51.968;5.646;2023-04-25T10:47:44;17.8;33.3
78541;SHT31;67835;51.968;5.646;2023-04-25T10:50:16;17.9;32.9
78541;SHT31;67835;51.968;5.646;2023-04-25T10:52:46;18.0;32.7
78541;SHT31;67835;51.968;5.646;2023-04-25T10:55:15;18.0;32.1
78541;SHT31;67835;51.968;5.646;2023-04-25T10:57:47;18.1;33.1
78541;SHT31;67835;51.968;5.646;2023-04-25T11:00:20;18.1;32.8
78541;SHT31;67835;51.968;5.646;2023-04-25T11:02:58;18.2;30.7
78541;SHT31;67835;51.968;5.646;2023-04-25T11:05:32;18.2;31.5
78541;SHT31;67835;51.968;5.646;2023-04-25T11:08:03;18.3;32.3
78541;SHT31;67835;51.968;5.646;2023-04-25T11:10:35;18.3;30.8
78541;SHT31;67835;51.968;5.646;2023-04-25T11:13:05;18.4;31.2
78541;SHT31;67835;51.968;5.646;2023-04-25T11:15:34;18.4;31.3
78541;SHT31;67835;51.968;5.646;2023-04-25T11:18:05;18.5;31.5
78541;SHT31;67835;51.968;5.646;2023-04-25T11:20:35;18.6;31.4
78541;SHT31;67835;51.968;5.646;2023-04-25T11:23:04;18.6;29.5
78541;SHT31;67835;51.968;5.646;2023-04-25T11:25:34;18.7;28.7
78541;SHT31;67835;51.968;5.646;2023-04-25T11:28:04;18.7;30.4
78541;SHT31;67835;51.968;5.646;2023-04-25T11:30:33;18.8;30.8
78541;SHT31;67835;51.968;5.646;2023-04-25T11:33:02;19.0;30.5
78541;SHT31;67835;51.968;5.646;2023-04-25T11:35:32;19.1;29.5
78541;SHT31;67835;51.968;5.646;2023-04-25T11:38:06;19.3;28.9
78541;SHT31;67835;51.968;5.646;2023-04-25T11:40:37;19.5;29.5
78541;SHT31;67835;51.968;5.646;2023-04-25T11:43:09;19.6;29.5
78541;SHT31;67835;51.968;5.646;2023-04-25T11:45:38;19.7;28.6
78541;SHT31;67835;51.968;5.646;2023-04-25T11:48:09;19.8;28.1
78541;SHT31;67835;51.968;5.646;2023-04-25T11:50:47;19.8;29.7
78541;SHT31;67835;51.968;5.646;2023-04-25T11:53:21;20.0;29.8
78541;SHT31;67835;51.968;5.646;2023-04-25T11:55:52;20.1;31.0
78541;SHT31;67835;51.968;5.646;2023-04-25T11:58:24;20.0;32.3
78541;SHT31;67835;51.968;5.646;2023-04-25T12:00:56;20.0;32.1
78541;SHT31;67835;51.968;5.646;2023-04-25T12:03:30;19.9;31.6
78541;SHT31;67835;51.968;5.646;2023-04-25T12:06:04;19.8;31.8
78541;SHT31;67835;51.968;5.646;2023-04-25T12:08:34;19.6;32.4
78541;SHT31;67835;51.968;5.646;2023-04-25T12:11:05;19.4;33.1
78541;SHT31;67835;51.968;5.646;2023-04-25T12:13:34;19.3;33.1
78541;SHT31;67835;51.968;5.646;2023-04-25T12:16:04;19.3;33.5
78541;SHT31;67835;51.968;5.646;2023-04-25T12:18:35;19.2;33.3
78541;SHT31;67835;51.968;5.646;2023-04-25T12:21:08;19.2;33.1
78541;SHT31;67835;51.968;5.646;2023-04-25T12:23:40;19.1;32.2
78541;SHT31;67835;51.968;5.646;2023-04-25T12:26:10;19.1;31.4
78541;SHT31;67835;51.968;5.646;2023-04-25T12:28:44;19.0;31.6
78541;SHT31;67835;51.968;5.646;2023-04-25T12:31:14;19.0;31.9
78541;SHT31;67835;51.968;5.646;2023-04-25T12:33:44;19.0;32.3
78541;SHT31;67835;51.968;5.646;2023-04-25T12:36:15;19.0;32.0
78541;SHT31;67835;51.968;5.646;2023-04-25T12:38:44;19.1;32.0
78541;SHT31;67835;51.968;5.646;2023-04-25T12:41:14;19.1;31.5
78541;SHT31;67835;51.968;5.646;2023-04-25T12:43:43;19.2;31.0
78541;SHT31;67835;51.968;5.646;2023-04-25T12:46:13;19.3;31.2
78541;SHT31;67835;51.968;5.646;2023-04-25T12:48:43;19.3;31.7
78541;SHT31;67835;51.968;5.646;2023-04-25T12:51:12;19.3;31.7
78541;SHT31;67835;51.968;5.646;2023-04-25T12:53:42;19.5;32.0
78541;SHT31;67835;51.968;5.646;2023-04-25T12:56:12;19.7;30.6
78541;SHT31;67835;51.968;5.646;2023-04-25T12:58:42;19.8;30.3
78541;SHT31;67835;51.968;5.646;2023-04-25T13:01:12;19.9;29.9
78541;SHT31;67835;51.968;5.646;2023-04-25T13:03:44;19.8;30.2
78541;SHT31;67835;51.968;5.646;2023-04-25T13:06:15;19.6;30.2
78541;SHT31;67835;51.968;5.646;2023-04-25T13:08:45;19.5;30.7
78541;SHT31;67835;51.968;5.646;2023-04-25T13:11:17;19.4;30.0
78541;SHT31;67835;51.968;5.646;2023-04-25T13:13:47;19.4;31.0
78541;SHT31;67835;51.968;5.646;2023-04-25T13:16:17;19.4;29.7
78541;SHT31;67835;51.968;5.646;2023-04-25T13:18:48;19.4;29.0
78541;SHT31;67835;51.968;5.646;2023-04-25T13:21:18;19.4;27.2
78541;SHT31;67835;51.968;5.646;2023-04-25T13:23:48;19.4;28.3
78541;SHT31;67835;51.968;5.646;2023-04-25T13:26:17;19.4;29.1
78541;SHT31;67835;51.968;5.646;2023-04-25T13:28:47;19.4;28.8
78541;SHT31;67835;51.968;5.646;2023-04-25T13:31:16;19.4;28.3
78541;SHT31;67835;51.968;5.646;2023-04-25T13:33:46;19.4;29.0
78541;SHT31;67835;51.968;5.646;2023-04-25T13:36:15;19.4;28.2
78541;SHT31;67835;51.968;5.646;2023-04-25T13:38:45;19.4;28.5
78541;SHT31;67835;51.968;5.646;2023-04-25T13:41:15;19.4;29.3
78541;SHT31;67835;51.968;5.646;2023-04-25T13:43:46;19.3;29.1
78541;SHT31;67835;51.968;5.646;2023-04-25T13:46:16;19.2;28.9
78541;SHT31;67835;51.968;5.646;2023-04-25T13:48:47;19.2;29.8
78541;SHT31;67835;51.968;5.646;2023-04-25T13:51:17;19.1;29.2
78541;SHT31;67835;51.968;5.646;2023-04-25T13:53:50;19.1;29.3
78541;SHT31;67835;51.968;5.646;2023-04-25T13:56:19;19.1;31.0
78541;SHT31;67835;51.968;5.646;2023-04-25T13:58:50;19.1;29.6
78541;SHT31;67835;51.968;5.646;2023-04-25T14:01:20;19.2;28.9
78541;SHT31;67835;51.968;5.646;2023-04-25T14:03:49;19.1;30.3
78541;SHT31;67835;51.968;5.646;2023-04-25T14:06:19;19.0;31.5
78541;SHT31;67835;51.968;5.646;2023-04-25T14:08:51;18.9;32.0
78541;SHT31;67835;51.968;5.646;2023-04-25T14:11:21;18.7;32.3
78541;SHT31;67835;51.968;5.646;2023-04-25T14:13:50;18.6;32.3
78541;SHT31;67835;51.968;5.646;2023-04-25T14:16:20;18.4;32.8
78541;SHT31;67835;51.968;5.646;2023-04-25T14:18:50;18.2;33.4
78541;SHT31;67835;51.968;5.646;2023-04-25T14:21:20;18.1;32.3
78541;SHT31;67835;51.968;5.646;2023-04-25T14:23:49;18.0;34.1
78541;SHT31;67835;51.968;5.646;2023-04-25T14:26:19;17.9;33.7
78541;SHT31;67835;51.968;5.646;2023-04-25T14:28:50;17.9;32.3
78541;SHT31;67835;51.968;5.646;2023-04-25T14:31:20;17.9;32.7
78541;SHT31;67835;51.968;5.646;2023-04-25T14:33:49;17.8;32.5
78541;SHT31;67835;51.968;5.646;2023-04-25T14:36:19;17.7;31.4
78541;SHT31;67835;51.968;5.646;2023-04-25T14:38:48;17.6;32.0
78541;SHT31;67835;51.968;5.646;2023-04-25T14:41:18;17.5;31.7
78541;SHT31;67835;51.968;5.646;2023-04-25T14:43:47;17.3;33.2
78541;SHT31;67835;51.968;5.646;2023-04-25T14:46:19;17.2;33.3
78541;SHT31;67835;51.968;5.646;2023-04-25T14:48:50;17.1;34.8
78541;SHT31;67835;51.968;5.646;2023-04-25T14:51:20;17.0;34.8
78541;SHT31;67835;51.968;5.646;2023-04-25T14:53:50;16.9;34.7
78541;SHT31;67835;51.968;5.646;2023-04-25T14:56:20;16.9;34.0
78541;SHT31;67835;51.968;5.646;2023-04-25T14:58:49;16.9;33.9
78541;SHT31;67835;51.968;5.646;2023-04-25T15:01:21;16.9;32.8
78541;SHT31;67835;51.968;5.646;2023-04-25T15:03:51;16.9;32.3
78541;SHT31;67835;51.968;5.646;2023-04-25T15:06:20;16.8;32.5
78541;SHT31;67835;51.968;5.646;2023-04-25T15:08:50;16.6;32.3
78541;SHT31;67835;51.968;5.646;2023-04-25T15:11:20;16.5;33.0
78541;SHT31;67835;51.968;5.646;2023-04-25T15:13:50;16.3;33.6
78541;SHT31;67835;51.968;5.646;2023-04-25T15:16:19;16.2;34.3
78541;SHT31;67835;51.968;5.646;2023-04-25T15:18:48;16.1;33.6
78541;SHT31;67835;51.968;5.646;2023-04-25T15:21:18;16.0;35.3
78541;SHT31;67835;51.968;5.646;2023-04-25T15:23:50;15.9;36.2
78541;SHT31;67835;51.968;5.646;2023-04-25T15:26:20;15.9;36.9
78541;SHT31;67835;51.968;5.646;2023-04-25T15:28:50;15.9;37.7
78541;SHT31;67835;51.968;5.646;2023-04-25T15:31:19;15.9;37.1
78541;SHT31;67835;51.968;5.646;2023-04-25T15:33:49;16.0;35.5
78541;SHT31;67835;51.968;5.646;2023-04-25T15:36:18;16.0;36.0
78541;SHT31;67835;51.968;5.646;2023-04-25T15:38:48;16.0;36.2
78541;SHT31;67835;51.968;5.646;2023-04-25T15:41:19;16.0;35.9
78541;SHT31;67835;51.968;5.646;2023-04-25T15:43:49;15.9;37.0
78541;SHT31;67835;51.968;5.646;2023-04-25T15:46:18;15.9;36.6
78541;SHT31;67835;51.968;5.646;2023-04-25T15:48:50;15.8;36.4
78541;SHT31;67835;51.968;5.646;2023-04-25T15:51:19;15.8;36.5
78541;SHT31;67835;51.968;5.646;2023-04-25T15:53:49;15.7;36.3
78541;SHT31;67835;51.968;5.646;2023-04-25T15:56:19;15.6;36.8
78541;SHT31;67835;51.968;5.646;2023-04-25T15:58:48;15.6;37.1
78541;SHT31;67835;51.968;5.646;2023-04-25T16:01:18;15.5;38.0
78541;SHT31;67835;51.968;5.646;2023-04-25T16:03:51;15.4;37.2
78541;SHT31;67835;51.968;5.646;2023-04-25T16:06:20;15.3;37.2
78541;SHT31;67835;51.968;5.646;2023-04-25T16:08:50;15.3;37.6
78541;SHT31;67835;51.968;5.646;2023-04-25T16:11:21;15.2;37.6
78541;SHT31;67835;51.968;5.646;2023-04-25T16:13:51;15.1;37.7
78541;SHT31;67835;51.968;5.646;2023-04-25T16:16:20;15.0;38.0
78541;SHT31;67835;51.968;5.646;2023-04-25T16:18:50;15.0;37.2
78541;SHT31;67835;51.968;5.646;2023-04-25T16:21:19;14.9;37.4
78541;SHT31;67835;51.968;5.646;2023-04-25T16:23:49;14.9;36.4
78541;SHT31;67835;51.968;5.646;2023-04-25T16:26:18;14.8;36.9
78541;SHT31;67835;51.968;5.646;2023-04-25T16:28:48;14.7;37.1